sensor_id;sensor_type;location;lat;lon;timestamp;P1;durP1;ratioP1;P2;durP2;ratioP2
17595;SDS011;8916;47.086;15.920;2022-10-30T00:01:34;36.28;;;22.60;;
17595;SDS011;8916;47.086;15.920;2022-10-30T00:04:04;70.93;;;25.88;;
17595;SDS011;8916;47.086;15.920;2022-10-30T00:06:33;38.80;;;21.95;;
17595;SDS011;8916;47.086;15.920;2022-10-30T00:09:02;46.75;;;23.25;;
17595;SDS011;8916;47.086;15.920;2022-10-30T00:11:31;83.68;;;26.63;;
17595;SDS011;8916;47.086;15.920;2022-10-30T00:14:00;43.25;;;24.08;;
17595;SDS011;8916;47.086;15.920;2022-10-30T00:16:31;39.75;;;25.20;;
17595;SDS011;8916;47.086;15.920;2022-10-30T00:19:00;31.08;;;21.02;;
17595;SDS011;8916;47.086;15.920;2022-10-30T00:21:29;26.45;;;20.00;;
17595;SDS011;8916;47.086;15.920;2022-10-30T00:23:59;26.95;;;18.25;;
17595;SDS011;8916;47.086;15.920;2022-10-30T00:26:28;57.33;;;21.08;;
17595;SDS011;8916;47.086;15.920;2022-10-30T00:28:58;50.78;;;22.85;;
17595;SDS011;8916;47.086;15.920;2022-10-30T00:31:27;50.13;;;23.80;;
17595;SDS011;8916;47.086;15.920;2022-10-30T00:33:58;48.90;;;25.25;;
17595;SDS011;8916;47.086;15.920;2022-10-30T00:36:27;33.92;;;22.80;;
17595;SDS011;8916;47.086;15.920;2022-10-30T00:38:56;49.00;;;28.13;;
17595;SDS011;8916;47.086;15.920;2022-10-30T00:41:25;46.55;;;27.60;;
17595;SDS011;8916;47.086;15.920;2022-10-30T00:43:54;44.80;;;26.08;;
17595;SDS011;8916;47.086;15.920;2022-10-30T00:46:25;36.72;;;23.88;;
17595;SDS011;8916;47.086;15.920;2022-10-30T00:49:01;35.92;;;22.55;;
17595;SDS011;8916;47.086;15.920;2022-10-30T00:51:36;42.88;;;22.38;;
17595;SDS011;8916;47.086;15.920;2022-10-30T00:54:08;33.33;;;21.38;;
17595;SDS011;8916;47.086;15.920;2022-10-30T00:56:39;33.38;;;20.45;;
17595;SDS011;8916;47.086;15.920;2022-10-30T00:59:09;46.10;;;20.20;;
17595;SDS011;8916;47.086;15.920;2022-10-30T01:01:43;44.25;;;22.05;;
17595;SDS011;8916;47.086;15.920;2022-10-30T01:04:17;31.17;;;21.45;;
17595;SDS011;8916;47.086;15.920;2022-10-30T01:06:55;31.27;;;21.50;;
17595;SDS011;8916;47.086;15.920;2022-10-30T01:09:26;32.95;;;21.40;;
17595;SDS011;8916;47.086;15.920;2022-10-30T01:11:57;32.72;;;20.42;;
17595;SDS011;8916;47.086;15.920;2022-10-30T01:14:26;30.42;;;21.05;;
17595;SDS011;8916;47.086;15.920;2022-10-30T01:17:09;31.05;;;20.67;;
17595;SDS011;8916;47.086;15.920;2022-10-30T01:19:55;26.70;;;20.23;;
17595;SDS011;8916;47.086;15.920;2022-10-30T01:22:41;24.67;;;18.15;;
17595;SDS011;8916;47.086;15.920;2022-10-30T01:25:27;26.30;;;18.73;;
17595;SDS011;8916;47.086;15.920;2022-10-30T01:28:18;28.40;;;17.10;;
17595;SDS011;8916;47.086;15.920;2022-10-30T01:31:07;38.35;;;17.05;;
17595;SDS011;8916;47.086;15.920;2022-10-30T01:33:51;25.00;;;16.45;;
17595;SDS011;8916;47.086;15.920;2022-10-30T01:36:36;40.97;;;16.65;;
17595;SDS011;8916;47.086;15.920;2022-10-30T01:39:11;32.70;;;17.27;;
17595;SDS011;8916;47.086;15.920;2022-10-30T01:41:42;40.83;;;18.17;;
17595;SDS011;8916;47.086;15.920;2022-10-30T01:44:13;26.02;;;16.48;;
17595;SDS011;8916;47.086;15.920;2022-10-30T01:46:50;24.77;;;16.77;;
17595;SDS011;8916;47.086;15.920;2022-10-30T01:49:57;29.50;;;15.77;;
17595;SDS011;8916;47.086;15.920;2022-10-30T01:52:44;41.88;;;16.88;;
17595;SDS011;8916;47.086;15.920;2022-10-30T01:55:28;20.05;;;16.42;;
17595;SDS011;8916;47.086;15.920;2022-10-30T01:58:05;46.90;;;18.90;;
17595;SDS011;8916;47.086;15.920;2022-10-30T02:00:51;28.75;;;17.33;;
17595;SDS011;8916;47.086;15.920;2022-10-30T02:03:25;76.65;;;21.15;;
17595;SDS011;8916;47.086;15.920;2022-10-30T02:05:55;47.00;;;19.75;;
17595;SDS011;8916;47.086;15.920;2022-10-30T02:08:26;35.97;;;17.52;;
17595;SDS011;8916;47.086;15.920;2022-10-30T02:10:55;34.88;;;18.02;;
17595;SDS011;8916;47.086;15.920;2022-10-30T02:13:35;36.47;;;16.13;;
17595;SDS011;8916;47.086;15.920;2022-10-30T02:16:07;34.13;;;16.58;;
17595;SDS011;8916;47.086;15.920;2022-10-30T02:18:37;39.53;;;17.35;;
17595;SDS011;8916;47.086;15.920;2022-10-30T02:21:07;50.05;;;18.15;;
17595;SDS011;8916;47.086;15.920;2022-10-30T02:23:39;32.38;;;18.00;;
17595;SDS011;8916;47.086;15.920;2022-10-30T02:26:08;45.70;;;17.90;;
17595;SDS011;8916;47.086;15.920;2022-10-30T02:28:37;23.15;;;15.70;;
17595;SDS011;8916;47.086;15.920;2022-10-30T02:31:07;30.42;;;15.95;;
17595;SDS011;8916;47.086;15.920;2022-10-30T02:33:36;26.27;;;15.65;;
17595;SDS011;8916;47.086;15.920;2022-10-30T02:36:05;33.85;;;17.23;;
17595;SDS011;8916;47.086;15.920;2022-10-30T02:38:37;50.95;;;17.63;;
17595;SDS011;8916;47.086;15.920;2022-10-30T02:41:07;22.13;;;16.75;;
17595;SDS011;8916;47.086;15.920;2022-10-30T02:43:37;28.35;;;18.60;;
17595;SDS011;8916;47.086;15.920;2022-10-30T02:46:07;41.08;;;17.58;;
17595;SDS011;8916;47.086;15.920;2022-10-30T02:48:37;36.95;;;18.13;;
17595;SDS011;8916;47.086;15.920;2022-10-30T02:51:08;33.53;;;16.77;;
17595;SDS011;8916;47.086;15.920;2022-10-30T02:53:40;33.78;;;16.00;;
17595;SDS011;8916;47.086;15.920;2022-10-30T02:56:10;48.03;;;17.70;;
17595;SDS011;8916;47.086;15.920;2022-10-30T02:58:42;31.55;;;17.55;;
17595;SDS011;8916;47.086;15.920;2022-10-30T03:01:12;68.50;;;21.95;;
17595;SDS011;8916;47.086;15.920;2022-10-30T03:03:44;69.80;;;20.05;;
17595;SDS011;8916;47.086;15.920;2022-10-30T03:06:15;24.38;;;16.98;;
17595;SDS011;8916;47.086;15.920;2022-10-30T03:08:45;28.63;;;18.23;;
17595;SDS011;8916;47.086;15.920;2022-10-30T03:11:14;31.90;;;17.83;;
17595;SDS011;8916;47.086;15.920;2022-10-30T03:13:46;30.40;;;17.02;;
17595;SDS011;8916;47.086;15.920;2022-10-30T03:16:17;33.10;;;16.13;;
17595;SDS011;8916;47.086;15.920;2022-10-30T03:18:49;25.92;;;16.60;;
17595;SDS011;8916;47.086;15.920;2022-10-30T03:21:20;35.30;;;15.65;;
17595;SDS011;8916;47.086;15.920;2022-10-30T03:23:52;24.42;;;14.88;;
17595;SDS011;8916;47.086;15.920;2022-10-30T03:26:22;29.08;;;14.38;;
17595;SDS011;8916;47.086;15.920;2022-10-30T03:28:56;39.90;;;13.85;;
17595;SDS011;8916;47.086;15.920;2022-10-30T03:31:25;27.58;;;13.70;;
17595;SDS011;8916;47.086;15.920;2022-10-30T03:34:07;42.42;;;14.20;;
17595;SDS011;8916;47.086;15.920;2022-10-30T03:36:37;24.20;;;14.52;;
17595;SDS011;8916;47.086;15.920;2022-10-30T03:39:07;37.00;;;14.60;;
17595;SDS011;8916;47.086;15.920;2022-10-30T03:41:40;24.73;;;13.63;;
17595;SDS011;8916;47.086;15.920;2022-10-30T03:44:11;80.65;;;16.17;;
17595;SDS011;8916;47.086;15.920;2022-10-30T03:46:40;41.10;;;14.80;;
17595;SDS011;8916;47.086;15.920;2022-10-30T03:49:33;38.05;;;14.20;;
17595;SDS011;8916;47.086;15.920;2022-10-30T03:52:09;32.00;;;13.55;;
17595;SDS011;8916;47.086;15.920;2022-10-30T03:54:38;31.83;;;14.27;;
17595;SDS011;8916;47.086;15.920;2022-10-30T03:57:09;26.17;;;14.32;;
17595;SDS011;8916;47.086;15.920;2022-10-30T03:59:54;36.83;;;15.00;;
17595;SDS011;8916;47.086;15.920;2022-10-30T04:02:44;41.67;;;14.43;;
17595;SDS011;8916;47.086;15.920;2022-10-30T04:05:16;36.08;;;13.90;;
17595;SDS011;8916;47.086;15.920;2022-10-30T04:07:53;51.55;;;14.05;;
17595;SDS011;8916;47.086;15.920;2022-10-30T04:10:24;46.85;;;14.02;;
17595;SDS011;8916;47.086;15.920;2022-10-30T04:12:58;29.48;;;14.82;;
17595;SDS011;8916;47.086;15.920;2022-10-30T04:15:29;24.50;;;16.38;;
17595;SDS011;8916;47.086;15.920;2022-10-30T04:17:58;36.80;;;13.73;;
17595;SDS011;8916;47.086;15.920;2022-10-30T04:20:29;21.52;;;13.73;;
17595;SDS011;8916;47.086;15.920;2022-10-30T04:23:00;20.15;;;13.30;;
17595;SDS011;8916;47.086;15.920;2022-10-30T04:25:33;24.33;;;14.45;;
17595;SDS011;8916;47.086;15.920;2022-10-30T04:28:03;28.02;;;13.02;;
17595;SDS011;8916;47.086;15.920;2022-10-30T04:30:32;22.10;;;12.50;;
17595;SDS011;8916;47.086;15.920;2022-10-30T04:33:04;17.63;;;13.02;;
17595;SDS011;8916;47.086;15.920;2022-10-30T04:35:35;27.98;;;14.10;;
17595;SDS011;8916;47.086;15.920;2022-10-30T04:38:12;27.98;;;14.30;;
17595;SDS011;8916;47.086;15.920;2022-10-30T04:40:46;26.05;;;13.95;;
17595;SDS011;8916;47.086;15.920;2022-10-30T04:43:17;20.90;;;12.50;;
17595;SDS011;8916;47.086;15.920;2022-10-30T04:45:50;20.20;;;12.93;;
17595;SDS011;8916;47.086;15.920;2022-10-30T04:48:20;15.10;;;12.95;;
17595;SDS011;8916;47.086;15.920;2022-10-30T04:50:49;21.65;;;13.18;;
17595;SDS011;8916;47.086;15.920;2022-10-30T04:53:24;54.20;;;14.60;;
17595;SDS011;8916;47.086;15.920;2022-10-30T04:56:00;23.15;;;12.25;;
17595;SDS011;8916;47.086;15.920;2022-10-30T04:58:30;23.23;;;13.05;;
17595;SDS011;8916;47.086;15.920;2022-10-30T05:01:03;16.00;;;13.18;;
17595;SDS011;8916;47.086;15.920;2022-10-30T05:03:35;21.65;;;13.90;;
17595;SDS011;8916;47.086;15.920;2022-10-30T05:06:13;18.85;;;12.85;;
17595;SDS011;8916;47.086;15.920;2022-10-30T05:08:50;18.88;;;12.18;;
17595;SDS011;8916;47.086;15.920;2022-10-30T05:11:42;19.90;;;11.93;;
17595;SDS011;8916;47.086;15.920;2022-10-30T05:14:11;46.47;;;12.05;;
17595;SDS011;8916;47.086;15.920;2022-10-30T05:16:43;19.33;;;10.95;;
17595;SDS011;8916;47.086;15.920;2022-10-30T05:19:12;33.78;;;12.07;;
17595;SDS011;8916;47.086;15.920;2022-10-30T05:21:48;15.32;;;12.10;;
17595;SDS011;8916;47.086;15.920;2022-10-30T05:24:19;16.35;;;12.70;;
17595;SDS011;8916;47.086;15.920;2022-10-30T05:26:49;27.08;;;12.77;;
17595;SDS011;8916;47.086;15.920;2022-10-30T05:29:18;24.80;;;14.00;;
17595;SDS011;8916;47.086;15.920;2022-10-30T05:31:47;18.10;;;13.30;;
17595;SDS011;8916;47.086;15.920;2022-10-30T05:34:16;17.27;;;12.57;;
17595;SDS011;8916;47.086;15.920;2022-10-30T05:36:49;50.35;;;13.02;;
17595;SDS011;8916;47.086;15.920;2022-10-30T05:39:21;17.92;;;11.88;;
17595;SDS011;8916;47.086;15.920;2022-10-30T05:41:51;14.10;;;11.20;;
17595;SDS011;8916;47.086;15.920;2022-10-30T05:44:23;17.02;;;11.07;;
17595;SDS011;8916;47.086;15.920;2022-10-30T05:47:13;23.73;;;11.57;;
17595;SDS011;8916;47.086;15.920;2022-10-30T05:49:46;17.20;;;10.98;;
17595;SDS011;8916;47.086;15.920;2022-10-30T05:52:18;27.45;;;10.63;;
17595;SDS011;8916;47.086;15.920;2022-10-30T05:54:51;16.85;;;11.48;;
17595;SDS011;8916;47.086;15.920;2022-10-30T05:57:29;15.35;;;11.38;;
17595;SDS011;8916;47.086;15.920;2022-10-30T06:00:00;50.85;;;14.07;;
17595;SDS011;8916;47.086;15.920;2022-10-30T06:02:30;63.47;;;15.23;;
17595;SDS011;8916;47.086;15.920;2022-10-30T06:05:00;46.33;;;14.73;;
17595;SDS011;8916;47.086;15.920;2022-10-30T06:07:29;24.63;;;14.10;;
17595;SDS011;8916;47.086;15.920;2022-10-30T06:10:00;21.52;;;14.13;;
17595;SDS011;8916;47.086;15.920;2022-10-30T06:13:03;28.58;;;11.52;;
17595;SDS011;8916;47.086;15.920;2022-10-30T06:15:46;29.00;;;11.13;;
17595;SDS011;8916;47.086;15.920;2022-10-30T06:18:15;11.73;;;10.25;;
17595;SDS011;8916;47.086;15.920;2022-10-30T06:20:47;22.70;;;10.27;;
17595;SDS011;8916;47.086;15.920;2022-10-30T06:23:22;27.20;;;10.63;;
17595;SDS011;8916;47.086;15.920;2022-10-30T06:25:58;16.73;;;10.38;;
17595;SDS011;8916;47.086;15.920;2022-10-30T06:31:03;29.35;;;10.82;;
17595;SDS011;8916;47.086;15.920;2022-10-30T06:33:37;19.40;;;10.48;;
17595;SDS011;8916;47.086;15.920;2022-10-30T06:36:07;31.35;;;10.95;;
17595;SDS011;8916;47.086;15.920;2022-10-30T06:38:36;31.40;;;11.55;;
17595;SDS011;8916;47.086;15.920;2022-10-30T06:41:07;13.07;;;9.95;;
17595;SDS011;8916;47.086;15.920;2022-10-30T06:43:57;17.83;;;10.27;;
17595;SDS011;8916;47.086;15.920;2022-10-30T06:46:26;41.25;;;11.27;;
17595;SDS011;8916;47.086;15.920;2022-10-30T06:49:00;30.27;;;10.57;;
17595;SDS011;8916;47.086;15.920;2022-10-30T06:51:30;63.80;;;12.18;;
17595;SDS011;8916;47.086;15.920;2022-10-30T06:54:01;15.70;;;10.45;;
17595;SDS011;8916;47.086;15.920;2022-10-30T06:56:41;14.68;;;11.30;;
17595;SDS011;8916;47.086;15.920;2022-10-30T06:59:28;12.15;;;10.48;;
17595;SDS011;8916;47.086;15.920;2022-10-30T07:02:15;13.77;;;10.38;;
17595;SDS011;8916;47.086;15.920;2022-10-30T07:04:52;11.73;;;9.57;;
17595;SDS011;8916;47.086;15.920;2022-10-30T07:07:21;31.92;;;9.60;;
17595;SDS011;8916;47.086;15.920;2022-10-30T07:09:50;16.30;;;9.15;;
17595;SDS011;8916;47.086;15.920;2022-10-30T07:12:28;31.10;;;9.70;;
17595;SDS011;8916;47.086;15.920;2022-10-30T07:15:10;20.80;;;9.50;;
17595;SDS011;8916;47.086;15.920;2022-10-30T07:17:54;22.13;;;9.63;;
17595;SDS011;8916;47.086;15.920;2022-10-30T07:20:27;30.67;;;8.18;;
17595;SDS011;8916;47.086;15.920;2022-10-30T07:23:00;26.85;;;9.90;;
17595;SDS011;8916;47.086;15.920;2022-10-30T07:25:31;15.52;;;8.70;;
17595;SDS011;8916;47.086;15.920;2022-10-30T07:28:16;12.52;;;8.45;;
17595;SDS011;8916;47.086;15.920;2022-10-30T07:30:57;17.08;;;8.63;;
17595;SDS011;8916;47.086;15.920;2022-10-30T07:33:53;11.90;;;7.78;;
17595;SDS011;8916;47.086;15.920;2022-10-30T07:36:41;15.13;;;7.38;;
17595;SDS011;8916;47.086;15.920;2022-10-30T07:39:23;11.82;;;8.30;;
17595;SDS011;8916;47.086;15.920;2022-10-30T07:42:04;22.05;;;7.43;;
17595;SDS011;8916;47.086;15.920;2022-10-30T07:45:02;22.27;;;7.63;;
17595;SDS011;8916;47.086;15.920;2022-10-30T07:47:39;12.00;;;7.07;;
17595;SDS011;8916;47.086;15.920;2022-10-30T07:50:28;21.42;;;8.00;;
17595;SDS011;8916;47.086;15.920;2022-10-30T07:52:58;24.35;;;8.25;;
17595;SDS011;8916;47.086;15.920;2022-10-30T07:55:31;21.42;;;8.02;;
17595;SDS011;8916;47.086;15.920;2022-10-30T07:58:12;12.43;;;8.38;;
17595;SDS011;8916;47.086;15.920;2022-10-30T08:00:48;25.23;;;7.95;;
17595;SDS011;8916;47.086;15.920;2022-10-30T08:03:26;14.27;;;8.57;;
17595;SDS011;8916;47.086;15.920;2022-10-30T08:06:02;11.23;;;8.52;;
17595;SDS011;8916;47.086;15.920;2022-10-30T08:08:34;26.90;;;8.40;;
17595;SDS011;8916;47.086;15.920;2022-10-30T08:11:27;23.95;;;8.13;;
17595;SDS011;8916;47.086;15.920;2022-10-30T08:13:58;12.82;;;7.72;;
17595;SDS011;8916;47.086;15.920;2022-10-30T08:16:29;23.40;;;7.82;;
17595;SDS011;8916;47.086;15.920;2022-10-30T08:18:58;22.08;;;6.45;;
17595;SDS011;8916;47.086;15.920;2022-10-30T08:21:28;24.33;;;7.78;;
17595;SDS011;8916;47.086;15.920;2022-10-30T08:23:59;12.93;;;6.88;;
17595;SDS011;8916;47.086;15.920;2022-10-30T08:26:31;12.00;;;7.88;;
17595;SDS011;8916;47.086;15.920;2022-10-30T08:31:51;17.55;;;7.82;;
17595;SDS011;8916;47.086;15.920;2022-10-30T08:34:21;13.00;;;7.72;;
17595;SDS011;8916;47.086;15.920;2022-10-30T08:36:54;10.27;;;8.10;;
17595;SDS011;8916;47.086;15.920;2022-10-30T08:39:24;13.98;;;8.18;;
17595;SDS011;8916;47.086;15.920;2022-10-30T08:41:59;21.23;;;8.57;;
17595;SDS011;8916;47.086;15.920;2022-10-30T08:44:34;31.50;;;9.60;;
17595;SDS011;8916;47.086;15.920;2022-10-30T08:47:14;26.38;;;8.60;;
17595;SDS011;8916;47.086;15.920;2022-10-30T08:49:44;14.98;;;8.60;;
17595;SDS011;8916;47.086;15.920;2022-10-30T08:52:17;15.43;;;8.50;;
17595;SDS011;8916;47.086;15.920;2022-10-30T08:54:53;15.38;;;8.80;;
17595;SDS011;8916;47.086;15.920;2022-10-30T08:57:25;11.65;;;8.25;;
17595;SDS011;8916;47.086;15.920;2022-10-30T08:59:57;10.57;;;8.60;;
17595;SDS011;8916;47.086;15.920;2022-10-30T09:02:53;14.80;;;9.30;;
17595;SDS011;8916;47.086;15.920;2022-10-30T09:05:46;15.43;;;9.27;;
17595;SDS011;8916;47.086;15.920;2022-10-30T09:08:16;17.95;;;9.00;;
17595;SDS011;8916;47.086;15.920;2022-10-30T09:13:33;17.15;;;8.95;;
17595;SDS011;8916;47.086;15.920;2022-10-30T09:16:05;15.00;;;9.80;;
17595;SDS011;8916;47.086;15.920;2022-10-30T09:18:40;20.10;;;9.57;;
17595;SDS011;8916;47.086;15.920;2022-10-30T09:21:09;13.60;;;9.43;;
17595;SDS011;8916;47.086;15.920;2022-10-30T09:23:45;18.90;;;9.35;;
17595;SDS011;8916;47.086;15.920;2022-10-30T09:26:34;15.35;;;9.20;;
17595;SDS011;8916;47.086;15.920;2022-10-30T09:29:24;15.43;;;9.45;;
17595;SDS011;8916;47.086;15.920;2022-10-30T09:32:07;14.15;;;9.48;;
17595;SDS011;8916;47.086;15.920;2022-10-30T09:34:50;14.57;;;9.52;;
17595;SDS011;8916;47.086;15.920;2022-10-30T09:37:32;14.05;;;9.02;;
17595;SDS011;8916;47.086;15.920;2022-10-30T09:40:06;47.78;;;12.35;;
17595;SDS011;8916;47.086;15.920;2022-10-30T09:42:42;40.42;;;10.30;;
17595;SDS011;8916;47.086;15.920;2022-10-30T09:48:26;15.82;;;9.38;;
17595;SDS011;8916;47.086;15.920;2022-10-30T09:51:22;11.27;;;9.10;;
17595;SDS011;8916;47.086;15.920;2022-10-30T09:54:21;12.65;;;10.45;;
17595;SDS011;8916;47.086;15.920;2022-10-30T09:57:06;11.57;;;9.57;;
17595;SDS011;8916;47.086;15.920;2022-10-30T09:59:50;12.60;;;8.45;;
17595;SDS011;8916;47.086;15.920;2022-10-30T10:02:47;10.82;;;8.73;;
17595;SDS011;8916;47.086;15.920;2022-10-30T10:05:47;10.93;;;8.93;;
17595;SDS011;8916;47.086;15.920;2022-10-30T10:08:49;11.00;;;9.20;;
17595;SDS011;8916;47.086;15.920;2022-10-30T10:11:26;14.43;;;9.63;;
17595;SDS011;8916;47.086;15.920;2022-10-30T10:14:05;13.30;;;9.68;;
17595;SDS011;8916;47.086;15.920;2022-10-30T10:16:39;11.75;;;9.63;;
17595;SDS011;8916;47.086;15.920;2022-10-30T10:19:13;13.82;;;9.32;;
17595;SDS011;8916;47.086;15.920;2022-10-30T10:21:48;10.03;;;8.40;;
17595;SDS011;8916;47.086;15.920;2022-10-30T10:24:26;11.60;;;9.40;;
17595;SDS011;8916;47.086;15.920;2022-10-30T10:27:03;13.90;;;10.75;;
17595;SDS011;8916;47.086;15.920;2022-10-30T10:29:46;14.43;;;10.35;;
17595;SDS011;8916;47.086;15.920;2022-10-30T10:32:37;15.77;;;11.02;;
17595;SDS011;8916;47.086;15.920;2022-10-30T10:35:47;13.07;;;10.38;;
17595;SDS011;8916;47.086;15.920;2022-10-30T10:38:30;12.57;;;9.98;;
17595;SDS011;8916;47.086;15.920;2022-10-30T10:41:30;12.43;;;9.35;;
17595;SDS011;8916;47.086;15.920;2022-10-30T10:44:30;12.07;;;9.55;;
17595;SDS011;8916;47.086;15.920;2022-10-30T10:47:22;9.90;;;8.53;;
17595;SDS011;8916;47.086;15.920;2022-10-30T10:50:30;10.80;;;9.07;;
17595;SDS011;8916;47.086;15.920;2022-10-30T10:53:04;12.13;;;9.52;;
17595;SDS011;8916;47.086;15.920;2022-10-30T10:55:40;12.80;;;10.98;;
17595;SDS011;8916;47.086;15.920;2022-10-30T10:58:14;12.18;;;10.77;;
17595;SDS011;8916;47.086;15.920;2022-10-30T11:00:55;13.35;;;10.93;;
17595;SDS011;8916;47.086;15.920;2022-10-30T11:03:28;15.05;;;10.60;;
17595;SDS011;8916;47.086;15.920;2022-10-30T11:06:11;12.77;;;10.10;;
17595;SDS011;8916;47.086;15.920;2022-10-30T11:08:48;13.13;;;11.25;;
17595;SDS011;8916;47.086;15.920;2022-10-30T11:11:21;13.48;;;11.10;;
17595;SDS011;8916;47.086;15.920;2022-10-30T11:13:54;13.15;;;11.75;;
17595;SDS011;8916;47.086;15.920;2022-10-30T11:16:24;14.50;;;11.90;;
17595;SDS011;8916;47.086;15.920;2022-10-30T11:19:03;16.98;;;11.27;;
17595;SDS011;8916;47.086;15.920;2022-10-30T11:21:37;12.70;;;10.90;;
17595;SDS011;8916;47.086;15.920;2022-10-30T11:24:24;13.90;;;11.35;;
17595;SDS011;8916;47.086;15.920;2022-10-30T11:26:56;12.55;;;10.57;;
17595;SDS011;8916;47.086;15.920;2022-10-30T11:29:48;13.13;;;10.73;;
17595;SDS011;8916;47.086;15.920;2022-10-30T11:32:23;13.82;;;11.07;;
17595;SDS011;8916;47.086;15.920;2022-10-30T11:34:59;12.68;;;10.60;;
17595;SDS011;8916;47.086;15.920;2022-10-30T11:37:30;14.07;;;10.52;;
17595;SDS011;8916;47.086;15.920;2022-10-30T11:40:04;14.35;;;10.07;;
17595;SDS011;8916;47.086;15.920;2022-10-30T11:42:43;15.07;;;10.18;;
17595;SDS011;8916;47.086;15.920;2022-10-30T11:45:19;13.75;;;10.35;;
17595;SDS011;8916;47.086;15.920;2022-10-30T11:47:54;14.30;;;10.40;;
17595;SDS011;8916;47.086;15.920;2022-10-30T11:50:30;20.38;;;12.40;;
17595;SDS011;8916;47.086;15.920;2022-10-30T11:53:01;19.08;;;12.35;;
17595;SDS011;8916;47.086;15.920;2022-10-30T11:55:39;19.70;;;12.80;;
17595;SDS011;8916;47.086;15.920;2022-10-30T11:58:19;16.70;;;12.48;;
17595;SDS011;8916;47.086;15.920;2022-10-30T12:01:02;16.40;;;10.93;;
17595;SDS011;8916;47.086;15.920;2022-10-30T12:03:35;14.25;;;10.82;;
17595;SDS011;8916;47.086;15.920;2022-10-30T12:06:08;15.77;;;10.27;;
17595;SDS011;8916;47.086;15.920;2022-10-30T12:08:57;14.90;;;9.90;;
17595;SDS011;8916;47.086;15.920;2022-10-30T12:11:29;13.38;;;9.85;;
17595;SDS011;8916;47.086;15.920;2022-10-30T12:14:01;12.75;;;9.88;;
17595;SDS011;8916;47.086;15.920;2022-10-30T12:16:32;10.57;;;9.48;;
17595;SDS011;8916;47.086;15.920;2022-10-30T12:19:04;14.52;;;10.13;;
17595;SDS011;8916;47.086;15.920;2022-10-30T12:21:43;12.48;;;10.13;;
17595;SDS011;8916;47.086;15.920;2022-10-30T12:24:17;12.88;;;9.75;;
17595;SDS011;8916;47.086;15.920;2022-10-30T12:27:01;11.50;;;9.57;;
17595;SDS011;8916;47.086;15.920;2022-10-30T12:29:41;12.95;;;9.57;;
17595;SDS011;8916;47.086;15.920;2022-10-30T12:32:39;13.07;;;9.43;;
17595;SDS011;8916;47.086;15.920;2022-10-30T12:35:30;14.35;;;9.90;;
17595;SDS011;8916;47.086;15.920;2022-10-30T12:38:10;13.88;;;10.35;;
17595;SDS011;8916;47.086;15.920;2022-10-30T12:40:55;11.90;;;10.30;;
17595;SDS011;8916;47.086;15.920;2022-10-30T12:43:33;12.38;;;10.27;;
17595;SDS011;8916;47.086;15.920;2022-10-30T12:46:10;13.80;;;9.90;;
17595;SDS011;8916;47.086;15.920;2022-10-30T12:48:57;12.52;;;9.93;;
17595;SDS011;8916;47.086;15.920;2022-10-30T12:51:40;12.10;;;10.23;;
17595;SDS011;8916;47.086;15.920;2022-10-30T12:54:19;12.90;;;10.60;;
17595;SDS011;8916;47.086;15.920;2022-10-30T12:56:59;13.60;;;10.18;;
17595;SDS011;8916;47.086;15.920;2022-10-30T12:59:38;16.20;;;11.52;;
17595;SDS011;8916;47.086;15.920;2022-10-30T13:02:22;14.30;;;10.48;;
17595;SDS011;8916;47.086;15.920;2022-10-30T13:05:12;18.50;;;11.40;;
17595;SDS011;8916;47.086;15.920;2022-10-30T13:07:56;17.55;;;11.25;;
17595;SDS011;8916;47.086;15.920;2022-10-30T13:10:37;18.58;;;10.90;;
17595;SDS011;8916;47.086;15.920;2022-10-30T13:13:11;16.13;;;11.30;;
17595;SDS011;8916;47.086;15.920;2022-10-30T13:15:45;13.70;;;10.95;;
17595;SDS011;8916;47.086;15.920;2022-10-30T13:18:18;19.55;;;11.38;;
17595;SDS011;8916;47.086;15.920;2022-10-30T13:21:02;15.85;;;10.52;;
17595;SDS011;8916;47.086;15.920;2022-10-30T13:26:22;14.40;;;10.45;;
17595;SDS011;8916;47.086;15.920;2022-10-30T13:29:00;15.50;;;10.07;;
17595;SDS011;8916;47.086;15.920;2022-10-30T13:31:46;12.77;;;10.05;;
17595;SDS011;8916;47.086;15.920;2022-10-30T13:34:28;13.05;;;10.60;;
17595;SDS011;8916;47.086;15.920;2022-10-30T13:37:11;14.77;;;10.75;;
17595;SDS011;8916;47.086;15.920;2022-10-30T13:39:47;14.63;;;10.63;;
17595;SDS011;8916;47.086;15.920;2022-10-30T13:42:37;14.60;;;10.82;;
17595;SDS011;8916;47.086;15.920;2022-10-30T13:45:28;13.60;;;10.00;;
17595;SDS011;8916;47.086;15.920;2022-10-30T13:48:21;15.13;;;10.20;;
17595;SDS011;8916;47.086;15.920;2022-10-30T13:54:08;13.25;;;10.23;;
17595;SDS011;8916;47.086;15.920;2022-10-30T13:56:46;12.60;;;9.30;;
17595;SDS011;8916;47.086;15.920;2022-10-30T13:59:20;12.52;;;9.43;;
17595;SDS011;8916;47.086;15.920;2022-10-30T14:02:12;10.38;;;8.88;;
17595;SDS011;8916;47.086;15.920;2022-10-30T14:04:56;11.57;;;9.02;;
17595;SDS011;8916;47.086;15.920;2022-10-30T14:07:35;13.82;;;10.15;;
17595;SDS011;8916;47.086;15.920;2022-10-30T14:10:14;12.48;;;9.13;;
17595;SDS011;8916;47.086;15.920;2022-10-30T14:13:04;11.27;;;9.43;;
17595;SDS011;8916;47.086;15.920;2022-10-30T14:15:54;11.25;;;8.80;;
17595;SDS011;8916;47.086;15.920;2022-10-30T14:18:31;18.10;;;9.82;;
17595;SDS011;8916;47.086;15.920;2022-10-30T14:21:30;14.63;;;10.20;;
17595;SDS011;8916;47.086;15.920;2022-10-30T14:24:17;12.82;;;9.75;;
17595;SDS011;8916;47.086;15.920;2022-10-30T14:26:52;13.60;;;9.77;;
17595;SDS011;8916;47.086;15.920;2022-10-30T14:29:44;17.95;;;10.10;;
17595;SDS011;8916;47.086;15.920;2022-10-30T14:32:31;11.48;;;9.35;;
17595;SDS011;8916;47.086;15.920;2022-10-30T14:35:27;12.48;;;9.30;;
17595;SDS011;8916;47.086;15.920;2022-10-30T14:38:14;13.52;;;9.75;;
17595;SDS011;8916;47.086;15.920;2022-10-30T14:41:06;14.65;;;10.63;;
17595;SDS011;8916;47.086;15.920;2022-10-30T14:44:18;12.63;;;8.95;;
17595;SDS011;8916;47.086;15.920;2022-10-30T14:47:23;16.88;;;9.57;;
17595;SDS011;8916;47.086;15.920;2022-10-30T14:50:12;14.60;;;10.00;;
17595;SDS011;8916;47.086;15.920;2022-10-30T14:53:08;14.23;;;9.93;;
17595;SDS011;8916;47.086;15.920;2022-10-30T14:56:20;15.95;;;9.90;;
17595;SDS011;8916;47.086;15.920;2022-10-30T15:02:11;15.93;;;10.40;;
17595;SDS011;8916;47.086;15.920;2022-10-30T15:05:08;16.27;;;10.02;;
17595;SDS011;8916;47.086;15.920;2022-10-30T15:08:02;21.05;;;10.82;;
17595;SDS011;8916;47.086;15.920;2022-10-30T15:10:50;19.58;;;11.07;;
17595;SDS011;8916;47.086;15.920;2022-10-30T15:13:47;18.08;;;10.88;;
17595;SDS011;8916;47.086;15.920;2022-10-30T15:16:23;15.53;;;10.93;;
17595;SDS011;8916;47.086;15.920;2022-10-30T15:19:03;16.80;;;12.55;;
17595;SDS011;8916;47.086;15.920;2022-10-30T15:21:55;18.13;;;11.57;;
17595;SDS011;8916;47.086;15.920;2022-10-30T15:24:40;18.60;;;11.65;;
17595;SDS011;8916;47.086;15.920;2022-10-30T15:27:10;16.65;;;12.30;;
17595;SDS011;8916;47.086;15.920;2022-10-30T15:29:48;20.85;;;12.60;;
17595;SDS011;8916;47.086;15.920;2022-10-30T15:32:24;18.27;;;13.02;;
17595;SDS011;8916;47.086;15.920;2022-10-30T15:34:54;19.42;;;13.77;;
17595;SDS011;8916;47.086;15.920;2022-10-30T15:37:37;21.25;;;13.48;;
17595;SDS011;8916;47.086;15.920;2022-10-30T15:40:13;21.52;;;12.45;;
17595;SDS011;8916;47.086;15.920;2022-10-30T15:42:47;19.40;;;13.27;;
17595;SDS011;8916;47.086;15.920;2022-10-30T15:45:20;20.38;;;13.27;;
17595;SDS011;8916;47.086;15.920;2022-10-30T15:47:55;19.63;;;13.90;;